Time;durP1;ratioP1;P1;durP2;ratioP2;P2;SDS_P1;SDS_P2;PMS_P1;PMS_P2;Temp;Humidity;BMP_temperature;BMP_pressure;BME280_temperature;BME280_humidity;BME280_pressure;Samples;Min_cycle;Max_cycle;Signal;HPM_P1;HPM_P2
2021/01/27 00:00:55;;;;;;;22.17;17.50;;;;;;;1.21;87.11;100528.22;4988335;28;20610;-75
2021/01/27 00:03:21;;;;;;;22.27;17.80;;;;;;;1.21;86.84;100531.69;4979620;28;20215;-75
2021/01/27 00:05:49;;;;;;;25.80;18.37;;;;;;;1.17;86.93;100525.59;4990760;28;20694;-76
2021/01/27 00:08:16;;;;;;;21.63;19.37;;;;;;;1.23;87.45;100522.28;4991237;28;20199;-76
2021/01/27 00:10:43;;;;;;;20.57;17.90;;;;;;;1.23;87.18;100522.28;4993262;28;20211;-76
2021/01/27 00:13:12;;;;;;;20.37;17.60;;;;;;;1.24;87.33;100520.56;4981917;28;20787;-76
2021/01/27 00:15:41;;;;;;;20.83;18.67;;;;;;;1.24;87.70;100520.56;4979165;28;20204;-76
2021/01/27 00:18:08;;;;;;;21.27;18.03;;;;;;;1.30;87.26;100526.69;4974832;28;20208;-76
2021/01/27 00:20:35;;;;;;;22.17;19.20;;;;;;;1.31;87.38;100522.41;4982066;28;20734;-76
2021/01/27 00:23:01;;;;;;;22.00;18.53;;;;;;;1.33;87.32;100521.63;4982036;28;20214;-76
2021/01/27 00:25:29;;;;;;;20.57;17.77;;;;;;;1.33;86.49;100515.63;4985847;28;20215;-76
2021/01/27 00:27:56;;;;;;;21.37;19.07;;;;;;;1.29;86.86;100526.66;4974858;28;20203;-76
2021/01/27 00:30:25;;;;;;;20.00;17.87;;;;;;;1.27;87.05;100520.63;4982128;28;20752;-76
2021/01/27 00:32:52;;;;;;;21.83;18.13;;;;;;;1.19;87.04;100521.34;4975776;28;20235;-76
2021/01/27 00:35:19;;;;;;;21.47;19.23;;;;;;;1.24;87.27;100520.56;4983836;28;20195;-76
2021/01/27 00:37:46;;;;;;;22.03;19.10;;;;;;;1.28;87.44;100512.09;4979784;28;20215;-76
2021/01/27 00:40:13;;;;;;;20.30;18.07;;;;;;;1.32;87.48;100514.72;4987560;28;20282;-76
2021/01/27 00:42:39;;;;;;;24.13;21.57;;;;;;;1.22;87.88;100509.41;4985840;28;20250;-76
2021/01/27 00:45:07;;;;;;;20.10;18.10;;;;;;;1.34;87.54;100504.50;4988662;28;20235;-76
2021/01/27 00:47:33;;;;;;;21.93;19.47;;;;;;;1.37;87.25;100499.41;4979686;28;20717;-76
2021/01/27 00:49:58;;;;;;;21.03;18.87;;;;;;;1.38;87.32;100499.41;4983008;28;20220;-76
2021/01/27 00:52:24;;;;;;;22.27;19.93;;;;;;;1.43;86.95;100494.38;4983450;28;20196;-76
2021/01/27 00:54:51;;;;;;;19.77;17.80;;;;;;;1.38;86.92;100486.56;4982997;28;20302;-76
2021/01/27 00:57:18;;;;;;;23.03;18.93;;;;;;;1.36;86.62;100493.38;4984343;28;20200;-76
2021/01/27 00:59:44;;;;;;;19.43;17.53;;;;;;;1.31;86.82;100488.97;4979625;28;20227;-76
2021/01/27 01:02:10;;;;;;;19.53;17.70;;;;;;;1.33;85.94;100487.34;4984138;28;20192;-76
2021/01/27 01:04:35;;;;;;;21.47;18.80;;;;;;;1.34;86.63;100481.34;4980244;28;20290;-76
2021/01/27 01:07:01;;;;;;;27.73;20.73;;;;;;;1.24;86.77;100480.28;4989589;28;20230;-75
2021/01/27 01:09:27;;;;;;;25.77;20.87;;;;;;;1.25;86.62;100478.59;4991516;28;20227;-76
2021/01/27 01:11:54;;;;;;;19.73;17.63;;;;;;;1.20;86.65;100481.06;4991053;28;20243;-75
2021/01/27 01:14:20;;;;;;;23.10;19.03;;;;;;;1.17;86.99;100476.75;4979913;28;20204;-76
2021/01/27 01:16:46;;;;;;;21.53;19.27;;;;;;;1.17;86.99;100474.19;4976840;28;20686;-76
2021/01/27 01:19:12;;;;;;;24.83;20.73;;;;;;;1.17;86.32;100469.03;4980827;28;20245;-76
2021/01/27 01:21:38;;;;;;;20.60;18.13;;;;;;;1.19;86.89;100475.06;4977318;28;20231;-76
2021/01/27 01:24:05;;;;;;;29.77;22.90;;;;;;;1.18;86.77;100481.03;4992548;28;20580;-76
2021/01/27 01:26:31;;;;;;;24.10;21.27;;;;;;;1.24;86.66;100480.28;4978788;28;20617;-75
2021/01/27 01:28:58;;;;;;;22.93;19.83;;;;;;;1.26;86.43;100486.34;4980851;28;20240;-76
2021/01/27 01:31:24;;;;;;;31.43;23.03;;;;;;;1.29;86.49;100480.38;4981681;28;20727;-76
2021/01/27 01:33:49;;;;;;;31.50;23.60;;;;;;;1.30;87.04;100477.84;4979645;28;20215;-76
2021/01/27 01:36:15;;;;;;;33.87;24.60;;;;;;;1.36;86.54;100479.66;4986330;28;20199;-76
2021/01/27 01:38:41;;;;;;;26.73;20.60;;;;;;;1.30;86.73;100471.84;4989446;28;20216;-76
2021/01/27 01:41:07;;;;;;;30.83;23.43;;;;;;;1.31;86.33;100482.16;4987226;28;20259;-75
2021/01/27 01:43:35;;;;;;;43.73;28.17;;;;;;;1.19;87.32;100480.22;4985882;28;20617;-76
2021/01/27 01:46:04;;;;;;;41.73;26.87;;;;;;;1.18;87.34;100475.91;4988915;28;20224;-76
2021/01/27 01:48:34;;;;;;;27.13;21.93;;;;;;;1.17;87.67;100468.19;4992352;28;20573;-76
2021/01/27 01:51:06;;;;;;;26.97;21.57;;;;;;;1.15;86.82;100473.28;4984941;28;20552;-76
2021/01/27 01:53:32;;;;;;;29.23;22.63;;;;;;;1.16;86.84;100469.84;4979781;28;20244;-75
2021/01/27 01:56:02;;;;;;;23.97;19.73;;;;;;;1.16;86.82;100472.44;4991534;28;20200;-76
2021/01/27 01:58:31;;;;;;;25.40;21.30;;;;;;;1.16;86.06;100459.56;4980150;28;20208;-76
2021/01/27 02:01:00;;;;;;;30.37;20.93;;;;;;;1.21;85.93;100457.13;4990225;28;20212;-76
2021/01/27 02:03:33;;;;;;;30.27;21.33;;;;;;;1.17;86.50;100463.03;4981289;28;20690;-76
2021/01/27 02:06:00;;;;;;;34.23;25.97;;;;;;;1.22;86.36;100451.13;4992483;28;20223;-76
2021/01/27 02:08:27;;;;;;;31.47;23.83;;;;;;;1.17;86.59;100457.91;4993456;28;20261;-74
2021/01/27 02:10:53;;;;;;;30.37;23.10;;;;;;;1.21;86.25;100451.09;4994159;28;20211;-75
2021/01/27 02:13:39;;;;;;;34.00;23.73;;;;;;;1.24;86.17;100457.16;4994359;28;20692;-76
2021/01/27 02:16:13;;;;;;;29.77;23.07;;;;;;;1.26;85.79;100447.75;4982711;28;20211;-77
2021/01/27 02:19:29;;;;;;;41.47;28.90;;;;;;;1.33;86.15;100446.19;4975948;28;20231;-76
2021/01/27 02:22:17;;;;;;;42.87;26.77;;;;;;;1.28;85.99;100442.66;4977350;28;20207;-77
2021/01/27 02:25:20;;;;;;;42.93;29.40;;;;;;;1.26;86.42;100445.19;4980853;28;20215;-76
2021/01/27 02:27:50;;;;;;;34.63;25.23;;;;;;;1.24;86.85;100441.72;4976808;28;20224;-77
2021/01/27 02:30:44;;;;;;;38.77;25.43;;;;;;;1.34;86.78;100443.63;4983089;28;20701;-77
2021/01/27 02:33:31;;;;;;;39.90;28.03;;;;;;;1.36;86.67;100443.66;4974152;28;20614;-76
2021/01/27 02:36:07;;;;;;;36.73;26.70;;;;;;;1.33;86.47;100438.47;4992854;28;20199;-76
2021/01/27 02:38:38;;;;;;;33.57;25.80;;;;;;;1.34;86.86;100443.63;4980906;28;20208;-76
2021/01/27 02:41:08;;;;;;;41.87;28.70;;;;;;;1.34;87.12;100437.63;4990219;28;20203;-75
2021/01/27 02:43:39;;;;;;;35.83;27.00;;;;;;;1.39;86.69;100436.03;4985503;28;20208;-75
2021/01/27 02:46:12;;;;;;;40.70;28.20;;;;;;;1.38;87.23;100435.13;4987920;28;20694;-75
2021/01/27 02:48:46;;;;;;;47.77;29.30;;;;;;;1.36;87.04;100434.25;4985281;28;20224;-75
2021/01/27 02:51:18;;;;;;;36.03;27.50;;;;;;;1.43;87.36;100431.78;4984539;28;20207;-74
2021/01/27 02:53:51;;;;;;;37.90;27.30;;;;;;;1.44;86.23;100430.94;4975998;28;20208;-75
2021/01/27 02:56:23;;;;;;;34.53;26.20;;;;;;;1.44;86.37;100429.25;4983731;28;20266;-75
2021/01/27 02:58:57;;;;;;;32.10;25.67;;;;;;;1.40;86.87;100427.44;4979101;28;20231;-75
2021/01/27 03:01:28;;;;;;;36.87;25.53;;;;;;;1.43;86.36;100422.38;4985252;28;20196;-75
2021/01/27 03:04:02;;;;;;;34.07;25.23;;;;;;;1.49;86.08;100426.75;4983137;28;20210;-75
2021/01/27 03:06:29;;;;;;;36.87;27.00;;;;;;;1.51;86.88;100420.81;4991944;28;20315;-75
2021/01/27 03:08:59;;;;;;;39.10;27.33;;;;;;;1.55;87.03;100417.44;4990773;28;20610;-75
2021/01/27 03:11:29;;;;;;;39.03;26.77;;;;;;;1.47;86.84;100413.88;4992238;28;20199;-75
2021/01/27 03:13:56;;;;;;;33.77;25.13;;;;;;;1.41;86.29;100411.19;4982003;28;20215;-75
2021/01/27 03:16:30;;;;;;;31.83;24.73;;;;;;;1.42;86.69;100405.19;4992578;28;20246;-75
2021/01/27 03:19:02;;;;;;;28.53;23.83;;;;;;;1.46;86.07;100400.97;4981240;28;20226;-75
2021/01/27 03:21:35;;;;;;;32.43;24.47;;;;;;;1.36;86.47;100397.38;4974383;28;20667;-75
2021/01/27 03:24:08;;;;;;;36.27;26.27;;;;;;;1.42;86.96;100399.19;4977940;28;20217;-74
2021/01/27 03:26:39;;;;;;;30.77;23.97;;;;;;;1.46;86.34;100393.25;4974293;28;20748;-75
2021/01/27 03:29:11;;;;;;;30.47;23.17;;;;;;;1.45;85.99;100389.84;4979212;28;20238;-75
2021/01/27 03:31:37;;;;;;;33.27;25.43;;;;;;;1.52;86.01;100381.34;4983330;28;20199;-75
2021/01/27 03:34:09;;;;;;;29.27;25.33;;;;;;;1.45;86.39;100376.97;4992562;28;20207;-75
2021/01/27 03:36:43;;;;;;;30.83;23.27;;;;;;;1.45;86.48;100368.38;4978166;28;20633;-75
2021/01/27 03:39:12;;;;;;;29.67;23.50;;;;;;;1.46;85.91;100360.69;4980701;28;20227;-75
2021/01/27 03:41:42;;;;;;;26.30;21.87;;;;;;;1.49;85.68;100365.91;4976254;28;20666;-75
2021/01/27 03:44:14;;;;;;;23.93;21.33;;;;;;;1.50;85.74;100359.91;4979087;28;20265;-75
2021/01/27 03:46:45;;;;;;;24.70;22.27;;;;;;;1.51;85.33;100366.78;4976945;28;20231;-75
2021/01/27 03:49:17;;;;;;;26.20;21.90;;;;;;;1.58;85.84;100371.16;4979825;28;20223;-75
2021/01/27 03:51:52;;;;;;;21.47;19.37;;;;;;;1.63;84.84;100367.84;4975241;28;20212;-75
2021/01/27 03:54:20;;;;;;;26.80;21.57;;;;;;;1.56;85.13;100366.84;4980383;28;20234;-75
2021/01/27 03:56:50;;;;;;;27.97;21.07;;;;;;;1.56;85.04;100362.56;4977924;28;20200;-75
2021/01/27 03:59:16;;;;;;;22.60;20.40;;;;;;;1.64;85.12;100364.41;4979714;28;20650;-75
2021/01/27 04:01:50;;;;;;;22.40;19.77;;;;;;;1.66;85.13;100360.16;4978793;28;20208;-75
2021/01/27 04:04:19;;;;;;;23.63;20.27;;;;;;;1.69;84.89;100349.91;4980433;28;20203;-75
2021/01/27 04:06:46;;;;;;;28.73;21.60;;;;;;;1.64;84.83;100349.81;4979570;28;20224;-75
2021/01/27 04:09:12;;;;;;;22.20;20.00;;;;;;;1.62;85.01;100346.38;4986269;28;20701;-75
2021/01/27 04:11:38;;;;;;;23.73;20.67;;;;;;;1.57;84.59;100340.31;4984014;28;20659;-75
2021/01/27 04:14:04;;;;;;;22.77;20.33;;;;;;;1.57;84.93;100350.59;4987228;28;20203;-75
2021/01/27 04:16:32;;;;;;;20.63;18.63;;;;;;;1.62;85.42;100337.78;4981928;28;20200;-75
2021/01/27 04:18:58;;;;;;;22.07;19.43;;;;;;;1.64;84.57;100333.53;4977828;28;20228;-75
2021/01/27 04:21:24;;;;;;;24.17;19.30;;;;;;;1.68;84.72;100341.31;4979845;28;20210;-75
2021/01/27 04:23:51;;;;;;;22.27;18.87;;;;;;;1.71;84.52;100338.81;4976158;28;20199;-74
2021/01/27 04:26:18;;;;;;;20.67;18.63;;;;;;;1.72;83.81;100340.50;4980523;28;20759;-75
2021/01/27 04:28:44;;;;;;;21.80;19.70;;;;;;;1.71;84.10;100328.50;4974963;28;20250;-75
2021/01/27 04:31:10;;;;;;;21.10;18.57;;;;;;;1.71;83.37;100325.94;4986158;28;20655;-75
2021/01/27 04:33:38;;;;;;;21.47;19.13;;;;;;;1.70;84.17;100323.34;4975367;28;20667;-75
2021/01/27 04:36:04;;;;;;;21.63;18.93;;;;;;;1.69;84.33;100319.91;4987339;28;20200;-75
2021/01/27 04:38:32;;;;;;;20.67;18.60;;;;;;;1.63;83.85;100324.09;4985052;28;20568;-75
2021/01/27 04:40:59;;;;;;;19.17;17.23;;;;;;;1.68;84.25;100320.72;4986509;28;20239;-75
2021/01/27 04:43:29;;;;;;;17.87;15.97;;;;;;;1.70;83.07;100319.03;4976668;28;20658;-75
2021/01/27 04:46:01;;;;;;;19.17;17.30;;;;;;;1.56;83.09;100321.41;4981627;28;20200;-75
2021/01/27 04:48:36;;;;;;;19.17;17.37;;;;;;;1.58;84.10;100322.28;4981048;28;20203;-75
2021/01/27 04:51:05;;;;;;;19.33;17.33;;;;;;;1.56;83.49;100312.84;4992449;28;20207;-75
2021/01/27 04:54:04;;;;;;;18.47;16.57;;;;;;;1.56;83.63;100311.13;4981147;28;20204;-75
2021/01/27 04:56:50;;;;;;;23.00;17.67;;;;;;;1.58;83.82;100306.00;4980907;28;20245;-75
2021/01/27 04:59:29;;;;;;;21.70;16.63;;;;;;;1.57;83.10;100314.56;4983444;28;20223;-75
2021/01/27 05:02:12;;;;;;;17.13;15.43;;;;;;;1.57;82.37;100314.56;4984514;28;20257;-75
2021/01/27 05:04:49;;;;;;;16.53;14.83;;;;;;;1.52;82.04;100316.19;4983374;28;20207;-75
2021/01/27 05:07:21;;;;;;;17.67;15.87;;;;;;;1.52;82.21;100313.63;4991439;28;20235;-75
2021/01/27 05:09:54;;;;;;;17.13;15.40;;;;;;;1.46;82.61;100314.38;4988938;28;20652;-75
2021/01/27 05:12:24;;;;;;;18.27;16.37;;;;;;;1.52;82.69;100319.63;4983218;28;20207;-75
2021/01/27 05:14:50;;;;;;;17.67;15.83;;;;;;;1.48;82.64;100323.00;4991575;28;20254;-75
2021/01/27 05:17:19;;;;;;;18.17;16.10;;;;;;;1.45;82.86;100317.81;4991088;28;20197;-75
2021/01/27 05:19:47;;;;;;;16.33;14.37;;;;;;;1.51;82.76;100315.34;4991655;28;20740;-75
2021/01/27 05:22:14;;;;;;;18.17;16.30;;;;;;;1.49;83.38;100316.16;4990574;28;20196;-75
2021/01/27 05:24:42;;;;;;;15.70;14.23;;;;;;;1.39;83.17;100310.88;4985665;28;20595;-75
2021/01/27 05:27:14;;;;;;;16.10;14.40;;;;;;;1.33;83.36;100323.63;4985051;28;20219;-75
2021/01/27 05:29:43;;;;;;;15.83;14.37;;;;;;;1.28;83.10;100307.25;4980516;28;20236;-75
2021/01/27 05:32:11;;;;;;;16.37;14.87;;;;;;;1.25;83.84;100303.75;4976720;28;20670;-75
2021/01/27 05:34:39;;;;;;;17.60;15.80;;;;;;;1.26;83.91;100308.06;4983941;28;20266;-75
2021/01/27 05:37:08;;;;;;;16.23;14.70;;;;;;;1.15;84.21;100303.63;4980600;28;20204;-75
2021/01/27 05:39:35;;;;;;;16.70;14.93;;;;;;;1.14;84.31;100303.59;4981764;28;20251;-75
2021/01/27 05:42:23;;;;;;;17.17;15.57;;;;;;;1.14;84.63;100311.28;4976438;28;20598;-75
2021/01/27 05:44:52;;;;;;;16.20;14.70;;;;;;;1.08;83.71;100312.06;4985960;28;20667;-75
2021/01/27 05:47:26;;;;;;;14.53;13.27;;;;;;;1.14;82.72;100307.00;4976951;28;20314;-75
2021/01/27 05:49:52;;;;;;;15.57;14.13;;;;;;;1.18;82.42;100305.38;4983717;28;20321;-75
2021/01/27 05:52:22;;;;;;;16.23;14.57;;;;;;;1.24;82.35;100309.75;4978476;28;20666;-75
2021/01/27 05:54:50;;;;;;;15.60;14.10;;;;;;;1.28;82.41;100311.53;4980392;28;20647;-75
2021/01/27 05:57:20;;;;;;;14.83;13.20;;;;;;;1.25;82.96;100309.78;4979334;28;20211;-75
2021/01/27 05:59:48;;;;;;;14.33;13.10;;;;;;;1.23;82.11;100313.13;4981131;28;20714;-75
2021/01/27 06:02:15;;;;;;;14.47;13.17;;;;;;;1.26;82.01;100313.22;4979953;28;20239;-75
2021/01/27 06:04:42;;;;;;;13.57;12.37;;;;;;;1.22;81.95;100312.28;4982733;28;20235;-75
2021/01/27 06:07:20;;;;;;;14.33;12.97;;;;;;;1.24;81.11;100309.75;4983243;28;20227;-75
2021/01/27 06:09:50;;;;;;;13.50;12.20;;;;;;;1.24;80.24;100313.19;4985864;28;20227;-75
2021/01/27 06:12:27;;;;;;;13.97;12.67;;;;;;;1.26;81.40;100308.06;4983710;28;20200;-75
2021/01/27 06:15:10;;;;;;;13.03;11.83;;;;;;;1.30;81.09;100310.69;4985099;28;20682;-75
2021/01/27 06:17:43;;;;;;;13.70;12.43;;;;;;;1.36;81.03;100308.22;4983318;28;20571;-75
2021/01/27 06:20:25;;;;;;;13.67;12.27;;;;;;;1.32;80.49;100301.31;4985674;28;20267;-75
2021/01/27 06:23:24;;;;;;;13.33;12.03;;;;;;;1.34;81.89;100294.47;4982498;28;20223;-75
2021/01/27 06:26:06;;;;;;;12.97;11.83;;;;;;;1.32;80.47;100293.59;4980130;28;20204;-74
2021/01/27 06:29:03;;;;;;;12.47;11.30;;;;;;;1.36;80.32;100291.94;4981645;28;20211;-77
2021/01/27 06:31:53;;;;;;;13.37;12.07;;;;;;;1.34;80.27;100291.06;4983387;28;20274;-77
2021/01/27 06:34:57;;;;;;;13.83;12.53;;;;;;;1.33;80.40;100285.06;4983316;28;20254;-77
2021/01/27 06:37:52;;;;;;;13.93;12.60;;;;;;;1.34;80.86;100286.78;4984296;28;20206;-76
2021/01/27 06:40:36;;;;;;;14.93;13.33;;;;;;;1.29;81.34;100278.13;4986934;28;20227;-76
2021/01/27 06:43:28;;;;;;;13.40;12.20;;;;;;;1.30;79.95;100281.56;4979308;28;20681;-76
2021/01/27 06:46:10;;;;;;;12.17;11.07;;;;;;;1.23;79.74;100282.28;4987382;28;20211;-76
2021/01/27 06:49:01;;;;;;;14.63;12.17;;;;;;;1.21;80.42;100279.72;4977900;28;20204;-76
2021/01/27 06:51:55;;;;;;;13.53;12.10;;;;;;;1.14;79.76;100271.03;4986898;28;20210;-76
2021/01/27 06:54:32;;;;;;;12.63;11.43;;;;;;;1.22;81.40;100280.56;4985964;28;20692;-76
2021/01/27 06:57:18;;;;;;;13.07;11.87;;;;;;;1.23;81.21;100274.59;4981587;28;20231;-75
2021/01/27 07:00:26;;;;;;;12.43;11.20;;;;;;;1.16;81.13;100271.06;4983018;28;20311;-75
2021/01/27 07:03:12;;;;;;;12.30;11.20;;;;;;;1.17;81.03;100278.81;4981096;28;20199;-75
2021/01/27 07:06:11;;;;;;;11.43;10.37;;;;;;;1.14;80.57;100259.88;4984775;28;20215;-76
2021/01/27 07:08:50;;;;;;;12.03;10.87;;;;;;;1.16;80.77;100255.63;4985698;28;20564;-76
2021/01/27 07:11:28;;;;;;;12.47;11.27;;;;;;;1.14;80.83;100259.88;4983220;28;20206;-76
2021/01/27 07:14:23;;;;;;;12.23;11.13;;;;;;;1.17;80.57;100257.38;4981730;28;20207;-75
2021/01/27 07:17:14;;;;;;;10.50;9.40;;;;;;;1.18;80.28;100261.66;4986350;28;20211;-74
2021/01/27 07:20:11;;;;;;;11.07;10.07;;;;;;;1.21;80.87;100255.69;4983563;28;20235;-75
2021/01/27 07:22:44;;;;;;;10.40;9.40;;;;;;;1.23;78.49;100261.72;4943241;28;20204;-75
2021/01/27 07:25:14;;;;;;;8.70;7.90;;;;;;;1.25;77.58;100252.34;4984954;28;20262;-75
2021/01/27 07:27:46;;;;;;;9.23;8.50;;;;;;;1.25;76.26;100265.19;4981826;28;20227;-76
2021/01/27 07:30:16;;;;;;;9.73;8.50;;;;;;;1.25;76.24;100257.47;4985600;28;20245;-75
2021/01/27 07:32:49;;;;;;;8.47;7.67;;;;;;;1.32;76.77;100257.59;4981634;28;20208;-76
2021/01/27 07:35:20;;;;;;;9.70;8.98;;;;;;;1.35;74.98;100254.22;4985032;28;20984;-75
2021/01/27 07:37:51;;;;;;;8.80;8.00;;;;;;;1.37;75.60;100245.69;4987681;28;20204;-75
2021/01/27 07:40:25;;;;;;;8.67;7.80;;;;;;;1.43;76.71;100244.91;4986174;28;20220;-76
2021/01/27 07:42:56;;;;;;;8.97;8.07;;;;;;;1.48;77.45;100240.69;4981184;28;20210;-75
2021/01/27 07:45:25;;;;;;;9.00;8.13;;;;;;;1.46;75.51;100234.66;4979920;28;20207;-75
2021/01/27 07:47:59;;;;;;;7.87;7.30;;;;;;;1.53;76.54;100240.78;4978149;28;20279;-76
2021/01/27 07:50:25;;;;;;;8.17;7.37;;;;;;;1.51;76.68;100232.19;4983252;28;20231;-76
2021/01/27 07:53:02;;;;;;;9.13;8.23;;;;;;;1.47;76.28;100222.69;4979339;28;20204;-75
2021/01/27 07:55:36;;;;;;;9.17;8.37;;;;;;;1.44;76.14;100227.78;4983224;28;20211;-75
2021/01/27 07:58:06;;;;;;;9.73;8.73;;;;;;;1.43;76.91;100221.78;4979904;28;20209;-75
2021/01/27 08:00:39;;;;;;;10.20;9.40;;;;;;;1.41;76.27;100213.19;4982123;28;20239;-75
2021/01/27 08:03:15;;;;;;;9.97;9.07;;;;;;;1.42;78.20;100212.31;4980032;28;20210;-76
2021/01/27 08:05:44;;;;;;;10.53;9.63;;;;;;;1.45;77.91;100209.81;4981381;28;20415;-76
2021/01/27 08:08:13;;;;;;;11.00;9.90;;;;;;;1.43;76.86;100202.88;4981443;28;20232;-75
2021/01/27 08:10:41;;;;;;;11.40;9.93;;;;;;;1.46;77.42;100208.09;4988643;28;20231;-75
2021/01/27 08:13:17;;;;;;;11.87;9.93;;;;;;;1.44;76.92;100204.63;4994636;28;20203;-74
2021/01/27 08:15:58;;;;;;;11.47;10.47;;;;;;;1.47;77.93;100194.41;4982193;28;20211;-76
2021/01/27 08:18:24;;;;;;;11.50;10.50;;;;;;;1.49;78.15;100185.84;4981904;28;20192;-76
2021/01/27 08:21:24;;;;;;;11.23;10.33;;;;;;;1.49;77.96;100183.28;4984571;28;20215;-76
2021/01/27 08:23:50;;;;;;;11.67;10.57;;;;;;;1.55;78.12;100177.34;4990078;28;20240;-76
2021/01/27 08:26:51;;;;;;;13.77;12.68;;;;;;;1.60;77.25;100165.41;4982328;28;20922;-76
2021/01/27 08:29:27;;;;;;;11.03;9.97;;;;;;;1.70;76.71;100161.25;4981400;28;20223;-76
2021/01/27 08:32:22;;;;;;;11.10;10.10;;;;;;;1.84;78.23;100161.41;4987357;28;20666;-76
2021/01/27 08:34:48;;;;;;;9.67;8.67;;;;;;;1.95;76.07;100154.69;4998944;28;20356;-76
2021/01/27 08:37:20;;;;;;;9.30;7.63;;;;;;;2.18;80.92;100152.34;4978377;28;20658;-75
2021/01/27 08:39:46;;;;;;;9.00;8.10;;;;;;;2.23;78.42;100153.28;4996141;28;20226;-75
2021/01/27 08:42:24;;;;;;;8.17;7.47;;;;;;;2.40;77.75;100161.19;4997024;28;20677;-77
2021/01/27 08:44:51;;;;;;;8.33;7.53;;;;;;;2.38;74.53;100161.16;4999002;28;20203;-76
2021/01/27 08:47:26;;;;;;;8.73;7.87;;;;;;;2.26;73.39;100161.03;4993473;28;20282;-77
2021/01/27 08:49:56;;;;;;;7.93;7.23;;;;;;;2.04;72.93;100164.22;4992993;28;20289;-77
2021/01/27 08:52:35;;;;;;;8.03;7.37;;;;;;;1.96;72.68;100157.28;4992298;28;20258;-77
2021/01/27 08:55:21;;;;;;;8.60;7.83;;;;;;;2.06;73.82;100165.09;4993025;28;20203;-76
2021/01/27 08:58:21;;;;;;;8.73;7.93;;;;;;;2.13;74.70;100172.06;4992861;28;20195;-77
2021/01/27 09:00:48;;;;;;;7.50;6.90;;;;;;;1.80;72.36;100165.66;4990429;28;20212;-78
2021/01/27 09:03:44;;;;;;;8.27;7.53;;;;;;;1.74;74.40;100165.56;4981396;28;20200;-77
2021/01/27 09:06:23;;;;;;;8.13;7.47;;;;;;;1.77;74.88;100171.63;4988977;28;20732;-76
2021/01/27 09:08:50;;;;;;;7.97;7.30;;;;;;;1.87;73.76;100169.19;4994170;28;20229;-76
2021/01/27 09:11:18;;;;;;;8.17;7.57;;;;;;;1.86;73.83;100168.28;4987517;28;20204;-76
2021/01/27 09:13:46;;;;;;;9.00;8.20;;;;;;;1.71;73.19;100186.16;4979753;28;20246;-76
2021/01/27 09:16:15;;;;;;;8.67;7.97;;;;;;;1.73;74.01;100175.00;4981104;28;20214;-76
2021/01/27 09:18:42;;;;;;;9.17;8.37;;;;;;;2.05;78.94;100181.41;4974327;28;20251;-76
2021/01/27 09:21:13;;;;;;;8.83;7.93;;;;;;;2.02;74.81;100183.94;4983004;28;20938;-77
2021/01/27 09:23:40;;;;;;;9.70;8.83;;;;;;;2.06;74.57;100178.84;4976098;28;20254;-76
2021/01/27 09:26:14;;;;;;;8.17;7.57;;;;;;;2.14;75.42;100182.38;4986868;28;20195;-76
2021/01/27 09:28:40;;;;;;;8.60;7.80;;;;;;;2.22;74.20;100176.44;4976833;28;20219;-77
2021/01/27 09:31:13;;;;;;;8.70;7.90;;;;;;;2.36;77.25;100174.88;4979918;28;20200;-77
2021/01/27 09:33:39;;;;;;;7.80;7.10;;;;;;;2.36;74.89;100169.72;4982486;28;20666;-77
2021/01/27 09:36:10;;;;;;;13.20;7.30;;;;;;;2.56;78.24;100167.34;4990303;28;20238;-75
2021/01/27 09:38:36;;;;;;;8.73;7.93;;;;;;;2.66;75.54;100170.88;4986792;28;20263;-76
2021/01/27 09:41:06;;;;;;;8.67;7.97;;;;;;;2.70;76.01;100168.31;4990059;28;20600;-76
2021/01/27 09:43:35;;;;;;;8.50;7.90;;;;;;;2.52;75.45;100163.88;4984021;28;20262;-76
2021/01/27 09:46:18;;;;;;;8.93;8.23;;;;;;;2.62;74.21;100167.41;4989972;28;20282;-77
2021/01/27 09:48:44;;;;;;;8.60;7.90;;;;;;;2.53;71.85;100168.16;4984258;28;20732;-76
2021/01/27 09:51:13;;;;;;;8.13;7.43;;;;;;;2.63;73.94;100165.66;4990594;28;20199;-77
2021/01/27 09:53:39;;;;;;;8.60;7.90;;;;;;;2.69;72.79;100170.88;4984283;28;20204;-77
2021/01/27 09:56:07;;;;;;;8.07;7.37;;;;;;;2.75;74.31;100176.09;4990100;28;20206;-77
2021/01/27 09:58:38;;;;;;;6.63;6.13;;;;;;;2.43;71.72;100162.91;4983678;28;20236;-77
2021/01/27 10:01:06;;;;;;;8.93;8.23;;;;;;;2.60;75.93;100158.78;4990354;28;20200;-77
2021/01/27 10:03:36;;;;;;;8.60;7.80;;;;;;;2.51;75.57;100146.66;4985078;28;20363;-78
2021/01/27 10:06:02;;;;;;;8.23;7.50;;;;;;;2.58;73.19;100148.47;4990812;28;20203;-77
2021/01/27 10:08:31;;;;;;;7.67;6.97;;;;;;;2.57;73.18;100153.59;4988839;28;20220;-77
2021/01/27 10:11:05;;;;;;;7.60;6.90;;;;;;;2.60;74.78;100151.06;4990040;28;20204;-77
2021/01/27 10:13:32;;;;;;;7.67;6.83;;;;;;;2.31;71.22;100153.34;4986243;28;20580;-76
2021/01/27 10:16:09;;;;;;;7.87;7.17;;;;;;;2.36;73.14;100147.41;4989834;28;20556;-77
2021/01/27 10:18:38;;;;;;;7.33;6.63;;;;;;;2.39;72.64;100144.84;4983978;28;20200;-77
2021/01/27 10:21:07;;;;;;;7.80;7.20;;;;;;;2.51;72.51;100146.66;4989902;28;20207;-77
2021/01/27 10:23:36;;;;;;;7.80;7.10;;;;;;;2.40;71.59;100148.31;4983916;28;20208;-78
2021/01/27 10:26:31;;;;;;;6.80;6.17;;;;;;;2.48;73.86;100146.66;4990236;28;20207;-77
2021/01/27 10:29:21;;;;;;;7.53;6.70;;;;;;;2.66;74.85;100140.81;4985690;28;20245;-77
2021/01/27 10:31:48;;;;;;;6.13;5.63;;;;;;;2.72;72.92;100132.25;4987607;28;20611;-77
2021/01/27 10:34:40;;;;;;;7.57;6.97;;;;;;;2.76;73.22;100132.28;4987120;28;20204;-77
2021/01/27 10:37:44;;;;;;;6.80;6.20;;;;;;;2.69;71.30;100127.94;4987680;28;20200;-77
2021/01/27 10:40:20;;;;;;;6.57;6.07;;;;;;;2.29;71.28;100137.03;4988022;28;20223;-76
2021/01/27 10:42:48;;;;;;;7.03;6.43;;;;;;;2.38;73.00;100140.56;4985434;28;20211;-78
2021/01/27 10:45:34;;;;;;;6.20;5.60;;;;;;;2.44;72.47;100137.19;4989696;28;20222;-76
2021/01/27 10:48:15;;;;;;;6.40;5.90;;;;;;;2.65;73.56;100136.47;4984193;28;20220;-78
2021/01/27 10:50:44;;;;;;;6.60;6.07;;;;;;;2.86;73.34;100129.78;4986562;28;20729;-77
2021/01/27 10:53:18;;;;;;;6.10;5.60;;;;;;;2.59;72.27;100131.28;4986706;28;20575;-82
2021/01/27 10:55:47;;;;;;;5.70;5.20;;;;;;;2.68;73.73;100127.94;4990970;28;20231;-82
2021/01/27 10:58:16;;;;;;;6.40;5.87;;;;;;;2.69;73.51;100127.06;4988884;28;20211;-76
2021/01/27 11:00:42;;;;;;;6.60;5.77;;;;;;;2.55;72.60;100127.81;4987334;28;20240;-77
2021/01/27 11:03:10;;;;;;;7.57;6.97;;;;;;;2.65;74.63;100117.59;4986558;28;20200;-77
2021/01/27 11:05:36;;;;;;;10.47;9.50;;;;;;;2.68;73.42;100115.06;4988866;28;20204;-78
2021/01/27 11:08:05;;;;;;;8.13;7.47;;;;;;;2.74;73.06;100107.38;4989786;28;20713;-79
2021/01/27 11:10:31;;;;;;;6.40;5.90;;;;;;;2.59;72.56;100101.22;4989312;28;20227;-78
2021/01/27 11:12:57;;;;;;;6.00;5.50;;;;;;;2.56;72.91;100105.50;4986375;28;20204;-77
2021/01/27 11:15:24;;;;;;;6.83;6.27;;;;;;;2.30;72.53;100102.69;4986436;28;20273;-76
2021/01/27 11:17:50;;;;;;;6.50;6.00;;;;;;;2.34;74.89;100107.91;4986638;28;20283;-77
2021/01/27 11:20:19;;;;;;;6.33;5.73;;;;;;;2.26;74.72;100101.81;4989520;28;20235;-77
2021/01/27 11:22:45;;;;;;;9.87;9.07;;;;;;;2.26;74.59;100104.38;4987391;28;20199;-80
2021/01/27 11:25:15;;;;;;;8.70;8.10;;;;;;;2.14;74.78;100091.38;4983727;28;20546;-79
2021/01/27 11:27:41;;;;;;;7.37;6.73;;;;;;;2.30;75.51;100095.84;4985843;28;20219;-78
2021/01/27 11:30:08;;;;;;;6.47;5.97;;;;;;;2.31;76.36;100088.97;4978724;28;20235;-78
2021/01/27 11:32:35;;;;;;;6.10;5.70;;;;;;;2.04;76.93;100085.25;4982437;28;20851;-79
2021/01/27 11:35:01;;;;;;;5.33;4.90;;;;;;;1.90;77.26;100085.16;4984646;28;20203;-78
2021/01/27 11:37:27;;;;;;;6.80;6.13;;;;;;;1.77;79.46;100084.16;4977760;28;20574;-79
2021/01/27 11:39:53;;;;;;;5.40;5.00;;;;;;;1.92;79.31;100077.44;4983933;28;20302;-77
2021/01/27 11:42:20;;;;;;;5.53;5.03;;;;;;;2.04;79.53;100079.25;4982320;28;20666;-78
2021/01/27 11:44:46;;;;;;;5.40;4.90;;;;;;;2.18;78.88;100086.28;4986825;28;20204;-81
2021/01/27 11:47:11;;;;;;;5.40;5.00;;;;;;;2.35;80.74;100085.56;4986042;28;20366;-78